sensor_id;sensor_type;location;lat;lon;timestamp;P1;durP1;ratioP1;P2;durP2;ratioP2
27857;SDS011;16852;51.446;6.528;2022-07-12T00:00:56;0.80;;;0.70;;
27857;SDS011;16852;51.446;6.528;2022-07-12T00:02:57;0.45;;;0.40;;
27857;SDS011;16852;51.446;6.528;2022-07-12T00:04:57;0.95;;;0.68;;
27857;SDS011;16852;51.446;6.528;2022-07-12T00:06:58;0.60;;;0.60;;
27857;SDS011;16852;51.446;6.528;2022-07-12T00:08:59;0.50;;;0.50;;
27857;SDS011;16852;51.446;6.528;2022-07-12T00:10:59;0.52;;;0.40;;
27857;SDS011;16852;51.446;6.528;2022-07-12T00:13:00;0.50;;;0.50;;
27857;SDS011;16852;51.446;6.528;2022-07-12T00:15:01;0.57;;;0.57;;
27857;SDS011;16852;51.446;6.528;2022-07-12T00:17:02;0.55;;;0.55;;
27857;SDS011;16852;51.446;6.528;2022-07-12T00:19:04;0.20;;;0.20;;
27857;SDS011;16852;51.446;6.528;2022-07-12T00:21:04;0.57;;;0.40;;
27857;SDS011;16852;51.446;6.528;2022-07-12T00:23:05;0.75;;;0.43;;
27857;SDS011;16852;51.446;6.528;2022-07-12T00:25:06;0.40;;;0.40;;
27857;SDS011;16852;51.446;6.528;2022-07-12T00:27:07;1.13;;;0.40;;
27857;SDS011;16852;51.446;6.528;2022-07-12T00:29:07;0.50;;;0.50;;
27857;SDS011;16852;51.446;6.528;2022-07-12T00:31:08;0.75;;;0.60;;
27857;SDS011;16852;51.446;6.528;2022-07-12T00:33:09;0.35;;;0.30;;
27857;SDS011;16852;51.446;6.528;2022-07-12T00:35:09;0.50;;;0.40;;
27857;SDS011;16852;51.446;6.528;2022-07-12T00:37:10;0.63;;;0.50;;
27857;SDS011;16852;51.446;6.528;2022-07-12T00:39:10;0.52;;;0.50;;
27857;SDS011;16852;51.446;6.528;2022-07-12T00:41:11;2.38;;;0.35;;
27857;SDS011;16852;51.446;6.528;2022-07-12T00:43:12;1.08;;;0.47;;
27857;SDS011;16852;51.446;6.528;2022-07-12T00:45:13;0.68;;;0.55;;
27857;SDS011;16852;51.446;6.528;2022-07-12T00:47:21;0.57;;;0.57;;
27857;SDS011;16852;51.446;6.528;2022-07-12T00:49:37;0.35;;;0.35;;
27857;SDS011;16852;51.446;6.528;2022-07-12T00:51:39;0.55;;;0.55;;
27857;SDS011;16852;51.446;6.528;2022-07-12T00:53:39;3.10;;;0.60;;
27857;SDS011;16852;51.446;6.528;2022-07-12T00:55:40;1.50;;;0.77;;
27857;SDS011;16852;51.446;6.528;2022-07-12T00:57:41;0.43;;;0.43;;
27857;SDS011;16852;51.446;6.528;2022-07-12T00:59:47;0.52;;;0.52;;
27857;SDS011;16852;51.446;6.528;2022-07-12T01:01:47;0.47;;;0.32;;
27857;SDS011;16852;51.446;6.528;2022-07-12T01:03:48;1.30;;;0.50;;
27857;SDS011;16852;51.446;6.528;2022-07-12T01:05:50;0.63;;;0.45;;
27857;SDS011;16852;51.446;6.528;2022-07-12T01:07:51;0.30;;;0.30;;
27857;SDS011;16852;51.446;6.528;2022-07-12T01:09:53;0.52;;;0.52;;
27857;SDS011;16852;51.446;6.528;2022-07-12T01:11:54;0.43;;;0.40;;
27857;SDS011;16852;51.446;6.528;2022-07-12T01:13:55;0.52;;;0.50;;
27857;SDS011;16852;51.446;6.528;2022-07-12T01:15:57;0.80;;;0.43;;
27857;SDS011;16852;51.446;6.528;2022-07-12T01:17:58;2.25;;;0.90;;
27857;SDS011;16852;51.446;6.528;2022-07-12T01:20:00;0.80;;;0.65;;
27857;SDS011;16852;51.446;6.528;2022-07-12T01:22:05;0.52;;;0.50;;
27857;SDS011;16852;51.446;6.528;2022-07-12T01:24:09;0.90;;;0.68;;
27857;SDS011;16852;51.446;6.528;2022-07-12T01:26:10;0.57;;;0.57;;
27857;SDS011;16852;51.446;6.528;2022-07-12T01:28:12;0.68;;;0.63;;
27857;SDS011;16852;51.446;6.528;2022-07-12T01:30:12;0.60;;;0.40;;
27857;SDS011;16852;51.446;6.528;2022-07-12T01:32:13;0.68;;;0.40;;
27857;SDS011;16852;51.446;6.528;2022-07-12T01:34:26;0.43;;;0.43;;
27857;SDS011;16852;51.446;6.528;2022-07-12T01:36:27;1.48;;;0.40;;
27857;SDS011;16852;51.446;6.528;2022-07-12T01:38:28;0.55;;;0.50;;
27857;SDS011;16852;51.446;6.528;2022-07-12T01:40:29;0.65;;;0.50;;
27857;SDS011;16852;51.446;6.528;2022-07-12T01:42:30;0.40;;;0.40;;
27857;SDS011;16852;51.446;6.528;2022-07-12T01:44:31;0.65;;;0.45;;
27857;SDS011;16852;51.446;6.528;2022-07-12T01:46:32;1.50;;;0.70;;
27857;SDS011;16852;51.446;6.528;2022-07-12T01:48:32;0.55;;;0.40;;
27857;SDS011;16852;51.446;6.528;2022-07-12T01:50:33;0.30;;;0.30;;
27857;SDS011;16852;51.446;6.528;2022-07-12T01:52:34;0.80;;;0.40;;
27857;SDS011;16852;51.446;6.528;2022-07-12T01:54:36;0.30;;;0.30;;
27857;SDS011;16852;51.446;6.528;2022-07-12T01:56:37;0.30;;;0.30;;
27857;SDS011;16852;51.446;6.528;2022-07-12T01:58:38;1.00;;;0.57;;
27857;SDS011;16852;51.446;6.528;2022-07-12T02:00:39;0.40;;;0.40;;
27857;SDS011;16852;51.446;6.528;2022-07-12T02:02:40;1.55;;;0.55;;
27857;SDS011;16852;51.446;6.528;2022-07-12T02:04:41;0.50;;;0.40;;
27857;SDS011;16852;51.446;6.528;2022-07-12T02:06:43;0.47;;;0.47;;
27857;SDS011;16852;51.446;6.528;2022-07-12T02:08:44;1.15;;;0.55;;
27857;SDS011;16852;51.446;6.528;2022-07-12T02:10:45;0.68;;;0.65;;
27857;SDS011;16852;51.446;6.528;2022-07-12T02:12:45;0.40;;;0.40;;
27857;SDS011;16852;51.446;6.528;2022-07-12T02:14:46;1.17;;;0.60;;
27857;SDS011;16852;51.446;6.528;2022-07-12T02:16:47;0.68;;;0.50;;
27857;SDS011;16852;51.446;6.528;2022-07-12T02:18:47;0.50;;;0.40;;
27857;SDS011;16852;51.446;6.528;2022-07-12T02:20:48;0.57;;;0.50;;
27857;SDS011;16852;51.446;6.528;2022-07-12T02:22:49;0.60;;;0.57;;
27857;SDS011;16852;51.446;6.528;2022-07-12T02:24:49;0.57;;;0.50;;
27857;SDS011;16852;51.446;6.528;2022-07-12T02:26:50;1.05;;;0.63;;
27857;SDS011;16852;51.446;6.528;2022-07-12T02:28:51;0.60;;;0.50;;
27857;SDS011;16852;51.446;6.528;2022-07-12T02:30:51;0.47;;;0.45;;
27857;SDS011;16852;51.446;6.528;2022-07-12T02:32:52;0.93;;;0.85;;
27857;SDS011;16852;51.446;6.528;2022-07-12T02:34:53;1.35;;;0.70;;
27857;SDS011;16852;51.446;6.528;2022-07-12T02:36:54;1.10;;;0.73;;
27857;SDS011;16852;51.446;6.528;2022-07-12T02:38:54;0.73;;;0.60;;
27857;SDS011;16852;51.446;6.528;2022-07-12T02:40:55;1.27;;;0.73;;
27857;SDS011;16852;51.446;6.528;2022-07-12T02:42:55;1.85;;;0.90;;
27857;SDS011;16852;51.446;6.528;2022-07-12T02:44:56;0.70;;;0.70;;
27857;SDS011;16852;51.446;6.528;2022-07-12T02:46:57;1.30;;;1.02;;
27857;SDS011;16852;51.446;6.528;2022-07-12T02:48:59;0.65;;;0.60;;
27857;SDS011;16852;51.446;6.528;2022-07-12T02:51:00;0.50;;;0.50;;
27857;SDS011;16852;51.446;6.528;2022-07-12T02:53:01;1.33;;;0.95;;
27857;SDS011;16852;51.446;6.528;2022-07-12T02:55:02;0.65;;;0.65;;
27857;SDS011;16852;51.446;6.528;2022-07-12T02:57:02;0.80;;;0.63;;
27857;SDS011;16852;51.446;6.528;2022-07-12T02:59:03;1.05;;;0.70;;
27857;SDS011;16852;51.446;6.528;2022-07-12T03:01:04;0.77;;;0.52;;
27857;SDS011;16852;51.446;6.528;2022-07-12T03:03:05;0.75;;;0.70;;
27857;SDS011;16852;51.446;6.528;2022-07-12T03:07:08;0.40;;;0.40;;
27857;SDS011;16852;51.446;6.528;2022-07-12T03:09:09;0.60;;;0.55;;
27857;SDS011;16852;51.446;6.528;2022-07-12T03:11:10;0.82;;;0.63;;
27857;SDS011;16852;51.446;6.528;2022-07-12T03:13:11;0.70;;;0.70;;
27857;SDS011;16852;51.446;6.528;2022-07-12T03:15:11;0.70;;;0.70;;
27857;SDS011;16852;51.446;6.528;2022-07-12T03:17:12;0.82;;;0.82;;
27857;SDS011;16852;51.446;6.528;2022-07-12T03:19:12;0.95;;;0.80;;
27857;SDS011;16852;51.446;6.528;2022-07-12T03:21:13;1.52;;;0.80;;
27857;SDS011;16852;51.446;6.528;2022-07-12T03:23:14;0.70;;;0.68;;
27857;SDS011;16852;51.446;6.528;2022-07-12T03:25:14;0.90;;;0.75;;
27857;SDS011;16852;51.446;6.528;2022-07-12T03:27:16;0.70;;;0.70;;
27857;SDS011;16852;51.446;6.528;2022-07-12T03:29:17;1.00;;;0.73;;
27857;SDS011;16852;51.446;6.528;2022-07-12T03:31:18;0.88;;;0.80;;
27857;SDS011;16852;51.446;6.528;2022-07-12T03:33:18;1.27;;;1.10;;
27857;SDS011;16852;51.446;6.528;2022-07-12T03:35:19;1.33;;;1.10;;
27857;SDS011;16852;51.446;6.528;2022-07-12T03:37:19;1.10;;;0.88;;
27857;SDS011;16852;51.446;6.528;2022-07-12T03:39:20;0.93;;;0.80;;
27857;SDS011;16852;51.446;6.528;2022-07-12T03:41:21;2.58;;;0.95;;
27857;SDS011;16852;51.446;6.528;2022-07-12T03:43:21;0.98;;;0.70;;
27857;SDS011;16852;51.446;6.528;2022-07-12T03:45:22;1.10;;;0.52;;
27857;SDS011;16852;51.446;6.528;2022-07-12T03:47:22;0.82;;;0.60;;
27857;SDS011;16852;51.446;6.528;2022-07-12T03:49:23;1.33;;;0.80;;
27857;SDS011;16852;51.446;6.528;2022-07-12T03:51:23;1.00;;;0.55;;
27857;SDS011;16852;51.446;6.528;2022-07-12T03:53:24;1.77;;;0.80;;
27857;SDS011;16852;51.446;6.528;2022-07-12T03:55:25;2.15;;;0.88;;
27857;SDS011;16852;51.446;6.528;2022-07-12T03:57:26;0.80;;;0.70;;
27857;SDS011;16852;51.446;6.528;2022-07-12T03:59:26;0.63;;;0.60;;
27857;SDS011;16852;51.446;6.528;2022-07-12T04:01:27;0.90;;;0.80;;
27857;SDS011;16852;51.446;6.528;2022-07-12T04:03:28;1.95;;;0.90;;
27857;SDS011;16852;51.446;6.528;2022-07-12T04:05:28;0.82;;;0.70;;
27857;SDS011;16852;51.446;6.528;2022-07-12T04:07:29;0.50;;;0.50;;
27857;SDS011;16852;51.446;6.528;2022-07-12T04:09:30;3.90;;;0.77;;
27857;SDS011;16852;51.446;6.528;2022-07-12T04:11:31;1.10;;;0.40;;
27857;SDS011;16852;51.446;6.528;2022-07-12T04:13:32;1.20;;;0.70;;
27857;SDS011;16852;51.446;6.528;2022-07-12T04:15:33;0.82;;;0.70;;
27857;SDS011;16852;51.446;6.528;2022-07-12T04:17:34;0.90;;;0.80;;
27857;SDS011;16852;51.446;6.528;2022-07-12T04:19:34;0.82;;;0.60;;
27857;SDS011;16852;51.446;6.528;2022-07-12T04:21:35;0.90;;;0.65;;
27857;SDS011;16852;51.446;6.528;2022-07-12T04:23:37;2.25;;;0.88;;
27857;SDS011;16852;51.446;6.528;2022-07-12T04:25:37;0.98;;;0.65;;
27857;SDS011;16852;51.446;6.528;2022-07-12T04:27:38;0.50;;;0.50;;
27857;SDS011;16852;51.446;6.528;2022-07-12T04:29:38;1.85;;;0.60;;
27857;SDS011;16852;51.446;6.528;2022-07-12T04:31:39;0.70;;;0.65;;
27857;SDS011;16852;51.446;6.528;2022-07-12T04:33:39;1.02;;;0.60;;
27857;SDS011;16852;51.446;6.528;2022-07-12T04:35:40;2.13;;;0.73;;
27857;SDS011;16852;51.446;6.528;2022-07-12T04:37:41;0.85;;;0.82;;
27857;SDS011;16852;51.446;6.528;2022-07-12T04:39:42;0.75;;;0.73;;
27857;SDS011;16852;51.446;6.528;2022-07-12T04:41:42;1.20;;;0.60;;
27857;SDS011;16852;51.446;6.528;2022-07-12T04:43:43;2.55;;;1.02;;
27857;SDS011;16852;51.446;6.528;2022-07-12T04:45:43;2.78;;;0.95;;
27857;SDS011;16852;51.446;6.528;2022-07-12T04:47:44;1.33;;;0.70;;
27857;SDS011;16852;51.446;6.528;2022-07-12T04:49:44;2.08;;;0.88;;
27857;SDS011;16852;51.446;6.528;2022-07-12T04:51:45;2.92;;;0.88;;
27857;SDS011;16852;51.446;6.528;2022-07-12T04:53:46;2.47;;;0.80;;
27857;SDS011;16852;51.446;6.528;2022-07-12T04:55:46;2.28;;;0.98;;
27857;SDS011;16852;51.446;6.528;2022-07-12T04:57:47;1.65;;;0.90;;
27857;SDS011;16852;51.446;6.528;2022-07-12T04:59:47;0.70;;;0.70;;
27857;SDS011;16852;51.446;6.528;2022-07-12T05:01:48;4.03;;;0.98;;
27857;SDS011;16852;51.446;6.528;2022-07-12T05:03:48;1.35;;;0.93;;
27857;SDS011;16852;51.446;6.528;2022-07-12T05:05:49;2.17;;;0.88;;
27857;SDS011;16852;51.446;6.528;2022-07-12T05:07:50;1.40;;;0.82;;
27857;SDS011;16852;51.446;6.528;2022-07-12T05:09:50;1.13;;;1.02;;
27857;SDS011;16852;51.446;6.528;2022-07-12T05:11:51;2.92;;;1.40;;
27857;SDS011;16852;51.446;6.528;2022-07-12T05:13:52;3.25;;;2.00;;
27857;SDS011;16852;51.446;6.528;2022-07-12T05:15:53;3.78;;;2.70;;
27857;SDS011;16852;51.446;6.528;2022-07-12T05:17:53;4.07;;;2.95;;
27857;SDS011;16852;51.446;6.528;2022-07-12T05:19:54;3.65;;;2.70;;
27857;SDS011;16852;51.446;6.528;2022-07-12T05:21:55;4.28;;;3.00;;
27857;SDS011;16852;51.446;6.528;2022-07-12T05:23:55;3.28;;;2.58;;
27857;SDS011;16852;51.446;6.528;2022-07-12T05:25:56;4.90;;;3.17;;
27857;SDS011;16852;51.446;6.528;2022-07-12T05:27:57;10.07;;;3.60;;
27857;SDS011;16852;51.446;6.528;2022-07-12T05:29:57;6.00;;;3.95;;
27857;SDS011;16852;51.446;6.528;2022-07-12T05:31:58;8.60;;;4.78;;
27857;SDS011;16852;51.446;6.528;2022-07-12T05:33:59;5.47;;;3.85;;
27857;SDS011;16852;51.446;6.528;2022-07-12T05:35:59;6.32;;;4.38;;
27857;SDS011;16852;51.446;6.528;2022-07-12T05:38:01;9.77;;;5.15;;
27857;SDS011;16852;51.446;6.528;2022-07-12T05:40:03;9.05;;;5.65;;
27857;SDS011;16852;51.446;6.528;2022-07-12T05:42:04;7.78;;;6.18;;
27857;SDS011;16852;51.446;6.528;2022-07-12T05:44:04;10.43;;;8.23;;
27857;SDS011;16852;51.446;6.528;2022-07-12T05:46:05;11.80;;;9.40;;
27857;SDS011;16852;51.446;6.528;2022-07-12T05:48:06;10.80;;;8.98;;
27857;SDS011;16852;51.446;6.528;2022-07-12T05:50:06;12.82;;;9.10;;
27857;SDS011;16852;51.446;6.528;2022-07-12T05:52:07;11.98;;;9.07;;
27857;SDS011;16852;51.446;6.528;2022-07-12T05:54:27;9.05;;;6.90;;
27857;SDS011;16852;51.446;6.528;2022-07-12T05:56:27;9.90;;;6.70;;
27857;SDS011;16852;51.446;6.528;2022-07-12T05:58:28;9.48;;;6.53;;
27857;SDS011;16852;51.446;6.528;2022-07-12T06:00:28;9.27;;;6.82;;
27857;SDS011;16852;51.446;6.528;2022-07-12T06:02:29;8.93;;;6.07;;
27857;SDS011;16852;51.446;6.528;2022-07-12T06:04:30;6.05;;;4.80;;
27857;SDS011;16852;51.446;6.528;2022-07-12T06:06:30;4.07;;;3.63;;
27857;SDS011;16852;51.446;6.528;2022-07-12T06:08:31;4.00;;;3.60;;
27857;SDS011;16852;51.446;6.528;2022-07-12T06:10:32;5.57;;;3.65;;
27857;SDS011;16852;51.446;6.528;2022-07-12T06:12:33;3.63;;;3.10;;
27857;SDS011;16852;51.446;6.528;2022-07-12T06:14:34;4.05;;;2.90;;
27857;SDS011;16852;51.446;6.528;2022-07-12T06:16:35;3.67;;;2.70;;
27857;SDS011;16852;51.446;6.528;2022-07-12T06:18:36;4.15;;;3.17;;
27857;SDS011;16852;51.446;6.528;2022-07-12T06:20:37;3.75;;;2.90;;
27857;SDS011;16852;51.446;6.528;2022-07-12T06:22:38;2.88;;;2.30;;
27857;SDS011;16852;51.446;6.528;2022-07-12T06:24:38;4.28;;;2.67;;
27857;SDS011;16852;51.446;6.528;2022-07-12T06:26:39;2.95;;;2.50;;
27857;SDS011;16852;51.446;6.528;2022-07-12T06:28:40;2.67;;;2.45;;
27857;SDS011;16852;51.446;6.528;2022-07-12T06:30:41;4.05;;;2.42;;
27857;SDS011;16852;51.446;6.528;2022-07-12T06:32:42;3.08;;;2.47;;
27857;SDS011;16852;51.446;6.528;2022-07-12T06:34:44;3.72;;;2.65;;
27857;SDS011;16852;51.446;6.528;2022-07-12T06:36:45;2.30;;;1.83;;
27857;SDS011;16852;51.446;6.528;2022-07-12T06:38:45;2.58;;;2.20;;
27857;SDS011;16852;51.446;6.528;2022-07-12T06:40:46;2.63;;;2.22;;
27857;SDS011;16852;51.446;6.528;2022-07-12T06:42:47;3.28;;;2.30;;
27857;SDS011;16852;51.446;6.528;2022-07-12T06:46:49;2.15;;;1.90;;
27857;SDS011;16852;51.446;6.528;2022-07-12T06:48:50;3.95;;;1.95;;
27857;SDS011;16852;51.446;6.528;2022-07-12T06:50:50;5.88;;;3.05;;
27857;SDS011;16852;51.446;6.528;2022-07-12T06:52:51;3.78;;;2.80;;
27857;SDS011;16852;51.446;6.528;2022-07-12T06:54:52;3.58;;;2.60;;
27857;SDS011;16852;51.446;6.528;2022-07-12T06:56:52;3.78;;;2.63;;
27857;SDS011;16852;51.446;6.528;2022-07-12T06:58:53;4.20;;;2.80;;
27857;SDS011;16852;51.446;6.528;2022-07-12T07:00:53;3.40;;;2.42;;
27857;SDS011;16852;51.446;6.528;2022-07-12T07:02:54;2.92;;;2.25;;
27857;SDS011;16852;51.446;6.528;2022-07-12T07:04:54;2.55;;;2.20;;
27857;SDS011;16852;51.446;6.528;2022-07-12T07:06:55;2.63;;;2.10;;
27857;SDS011;16852;51.446;6.528;2022-07-12T07:08:56;3.03;;;1.65;;
27857;SDS011;16852;51.446;6.528;2022-07-12T07:10:56;3.10;;;1.75;;
27857;SDS011;16852;51.446;6.528;2022-07-12T07:12:57;1.70;;;1.60;;
27857;SDS011;16852;51.446;6.528;2022-07-12T07:14:57;3.03;;;1.85;;
27857;SDS011;16852;51.446;6.528;2022-07-12T07:16:58;2.53;;;1.67;;
27857;SDS011;16852;51.446;6.528;2022-07-12T07:18:58;2.30;;;1.77;;
27857;SDS011;16852;51.446;6.528;2022-07-12T07:20:59;2.25;;;1.83;;
27857;SDS011;16852;51.446;6.528;2022-07-12T07:23:00;2.20;;;1.70;;
27857;SDS011;16852;51.446;6.528;2022-07-12T07:25:00;2.20;;;1.60;;
27857;SDS011;16852;51.446;6.528;2022-07-12T07:27:01;2.00;;;1.58;;
27857;SDS011;16852;51.446;6.528;2022-07-12T07:29:02;2.35;;;1.95;;
27857;SDS011;16852;51.446;6.528;2022-07-12T07:31:21;2.38;;;1.95;;
27857;SDS011;16852;51.446;6.528;2022-07-12T07:33:22;3.47;;;1.90;;
27857;SDS011;16852;51.446;6.528;2022-07-12T07:35:24;3.22;;;2.22;;
27857;SDS011;16852;51.446;6.528;2022-07-12T07:37:24;3.00;;;2.05;;
27857;SDS011;16852;51.446;6.528;2022-07-12T07:39:25;2.53;;;1.80;;
27857;SDS011;16852;51.446;6.528;2022-07-12T07:41:25;2.65;;;2.00;;
27857;SDS011;16852;51.446;6.528;2022-07-12T07:43:26;2.65;;;2.10;;
27857;SDS011;16852;51.446;6.528;2022-07-12T07:45:26;2.95;;;2.10;;
27857;SDS011;16852;51.446;6.528;2022-07-12T07:47:27;3.60;;;2.10;;
27857;SDS011;16852;51.446;6.528;2022-07-12T07:49:28;1.63;;;1.50;;
27857;SDS011;16852;51.446;6.528;2022-07-12T07:51:29;2.28;;;1.92;;
27857;SDS011;16852;51.446;6.528;2022-07-12T07:53:29;3.00;;;2.10;;
27857;SDS011;16852;51.446;6.528;2022-07-12T07:55:30;3.00;;;1.90;;
27857;SDS011;16852;51.446;6.528;2022-07-12T07:57:30;2.42;;;1.75;;
27857;SDS011;16852;51.446;6.528;2022-07-12T07:59:31;1.77;;;1.65;;
27857;SDS011;16852;51.446;6.528;2022-07-12T08:01:32;2.38;;;1.50;;
27857;SDS011;16852;51.446;6.528;2022-07-12T08:03:53;1.80;;;1.70;;
27857;SDS011;16852;51.446;6.528;2022-07-12T08:05:54;2.00;;;1.80;;
27857;SDS011;16852;51.446;6.528;2022-07-12T08:07:57;1.65;;;1.50;;
27857;SDS011;16852;51.446;6.528;2022-07-12T08:09:58;2.10;;;1.90;;
27857;SDS011;16852;51.446;6.528;2022-07-12T08:11:58;3.50;;;2.08;;
27857;SDS011;16852;51.446;6.528;2022-07-12T08:13:59;3.13;;;1.80;;
27857;SDS011;16852;51.446;6.528;2022-07-12T08:16:00;2.60;;;1.80;;
27857;SDS011;16852;51.446;6.528;2022-07-12T08:18:00;3.00;;;2.22;;
27857;SDS011;16852;51.446;6.528;2022-07-12T08:20:01;3.35;;;2.20;;
27857;SDS011;16852;51.446;6.528;2022-07-12T08:22:02;1.88;;;1.60;;
27857;SDS011;16852;51.446;6.528;2022-07-12T08:24:03;1.58;;;1.48;;
27857;SDS011;16852;51.446;6.528;2022-07-12T08:26:04;2.60;;;1.98;;
27857;SDS011;16852;51.446;6.528;2022-07-12T08:28:05;2.10;;;1.58;;
27857;SDS011;16852;51.446;6.528;2022-07-12T08:30:06;3.10;;;1.83;;
27857;SDS011;16852;51.446;6.528;2022-07-12T08:32:07;1.50;;;1.40;;
27857;SDS011;16852;51.446;6.528;2022-07-12T08:34:08;1.90;;;1.50;;
27857;SDS011;16852;51.446;6.528;2022-07-12T08:36:09;2.33;;;1.95;;
27857;SDS011;16852;51.446;6.528;2022-07-12T08:38:09;2.30;;;1.58;;
27857;SDS011;16852;51.446;6.528;2022-07-12T08:40:10;2.17;;;1.20;;
27857;SDS011;16852;51.446;6.528;2022-07-12T08:42:12;2.17;;;1.98;;
27857;SDS011;16852;51.446;6.528;2022-07-12T08:44:16;4.95;;;1.90;;
27857;SDS011;16852;51.446;6.528;2022-07-12T08:46:16;1.85;;;1.63;;
27857;SDS011;16852;51.446;6.528;2022-07-12T08:48:17;3.13;;;1.48;;
27857;SDS011;16852;51.446;6.528;2022-07-12T08:50:18;2.03;;;1.70;;
27857;SDS011;16852;51.446;6.528;2022-07-12T08:52:29;2.28;;;1.70;;
27857;SDS011;16852;51.446;6.528;2022-07-12T08:54:38;2.25;;;1.70;;
27857;SDS011;16852;51.446;6.528;2022-07-12T08:56:40;1.80;;;1.42;;
27857;SDS011;16852;51.446;6.528;2022-07-12T08:58:41;2.78;;;1.55;;
27857;SDS011;16852;51.446;6.528;2022-07-12T09:00:41;1.58;;;1.40;;
27857;SDS011;16852;51.446;6.528;2022-07-12T09:02:43;1.27;;;1.17;;
27857;SDS011;16852;51.446;6.528;2022-07-12T09:04:45;3.17;;;1.65;;
27857;SDS011;16852;51.446;6.528;2022-07-12T09:06:46;1.92;;;1.30;;
27857;SDS011;16852;51.446;6.528;2022-07-12T09:08:47;1.73;;;1.10;;
27857;SDS011;16852;51.446;6.528;2022-07-12T09:12:52;1.90;;;1.52;;
27857;SDS011;16852;51.446;6.528;2022-07-12T09:14:53;2.80;;;1.90;;
27857;SDS011;16852;51.446;6.528;2022-07-12T09:19:17;1.48;;;1.15;;
27857;SDS011;16852;51.446;6.528;2022-07-12T09:21:23;1.52;;;1.30;;
27857;SDS011;16852;51.446;6.528;2022-07-12T09:23:25;1.38;;;0.98;;
27857;SDS011;16852;51.446;6.528;2022-07-12T09:25:26;1.30;;;1.00;;
27857;SDS011;16852;51.446;6.528;2022-07-12T09:27:27;1.55;;;0.88;;
27857;SDS011;16852;51.446;6.528;2022-07-12T09:29:27;2.22;;;1.35;;
27857;SDS011;16852;51.446;6.528;2022-07-12T09:31:37;1.23;;;0.93;;
27857;SDS011;16852;51.446;6.528;2022-07-12T09:36:23;2.10;;;1.20;;
27857;SDS011;16852;51.446;6.528;2022-07-12T09:38:24;2.55;;;1.35;;
27857;SDS011;16852;51.446;6.528;2022-07-12T09:40:26;1.58;;;1.17;;
27857;SDS011;16852;51.446;6.528;2022-07-12T09:42:27;0.95;;;0.88;;
27857;SDS011;16852;51.446;6.528;2022-07-12T09:44:28;1.20;;;1.10;;
27857;SDS011;16852;51.446;6.528;2022-07-12T09:46:31;3.38;;;1.25;;
27857;SDS011;16852;51.446;6.528;2022-07-12T09:48:32;1.85;;;1.25;;
27857;SDS011;16852;51.446;6.528;2022-07-12T09:50:34;1.40;;;1.23;;
27857;SDS011;16852;51.446;6.528;2022-07-12T09:52:36;1.35;;;1.00;;
27857;SDS011;16852;51.446;6.528;2022-07-12T09:54:40;1.70;;;1.27;;
27857;SDS011;16852;51.446;6.528;2022-07-12T09:58:56;2.05;;;1.27;;
27857;SDS011;16852;51.446;6.528;2022-07-12T10:00:58;0.80;;;0.77;;
27857;SDS011;16852;51.446;6.528;2022-07-12T10:03:02;2.03;;;1.10;;
27857;SDS011;16852;51.446;6.528;2022-07-12T10:05:04;1.93;;;1.23;;
27857;SDS011;16852;51.446;6.528;2022-07-12T10:07:07;1.73;;;1.10;;
27857;SDS011;16852;51.446;6.528;2022-07-12T10:09:08;3.25;;;1.35;;
27857;SDS011;16852;51.446;6.528;2022-07-12T10:11:10;1.42;;;0.80;;
27857;SDS011;16852;51.446;6.528;2022-07-12T10:13:13;1.38;;;1.20;;
27857;SDS011;16852;51.446;6.528;2022-07-12T10:15:15;1.80;;;1.40;;
27857;SDS011;16852;51.446;6.528;2022-07-12T10:17:22;3.75;;;2.13;;
27857;SDS011;16852;51.446;6.528;2022-07-12T10:21:25;1.73;;;1.48;;
27857;SDS011;16852;51.446;6.528;2022-07-12T10:25:33;3.83;;;1.85;;
27857;SDS011;16852;51.446;6.528;2022-07-12T10:27:34;3.90;;;1.92;;
27857;SDS011;16852;51.446;6.528;2022-07-12T10:29:37;3.17;;;1.58;;
27857;SDS011;16852;51.446;6.528;2022-07-12T10:31:38;2.60;;;1.30;;
27857;SDS011;16852;51.446;6.528;2022-07-12T10:33:40;1.85;;;1.67;;
27857;SDS011;16852;51.446;6.528;2022-07-12T10:35:41;2.22;;;1.73;;
27857;SDS011;16852;51.446;6.528;2022-07-12T10:40:14;0.93;;;0.93;;
27857;SDS011;16852;51.446;6.528;2022-07-12T10:42:15;2.20;;;1.30;;
27857;SDS011;16852;51.446;6.528;2022-07-12T10:44:30;4.60;;;1.27;;
27857;SDS011;16852;51.446;6.528;2022-07-12T10:46:57;2.17;;;1.30;;
27857;SDS011;16852;51.446;6.528;2022-07-12T10:49:33;2.35;;;1.60;;
27857;SDS011;16852;51.446;6.528;2022-07-12T10:51:28;2.10;;;1.55;;
27857;SDS011;16852;51.446;6.528;2022-07-12T10:53:32;2.35;;;1.60;;
27857;SDS011;16852;51.446;6.528;2022-07-12T10:55:40;4.32;;;1.80;;
27857;SDS011;16852;51.446;6.528;2022-07-12T10:58:04;3.25;;;2.00;;
27857;SDS011;16852;51.446;6.528;2022-07-12T11:00:05;5.68;;;2.17;;
27857;SDS011;16852;51.446;6.528;2022-07-12T11:02:08;3.58;;;2.10;;
27857;SDS011;16852;51.446;6.528;2022-07-12T11:04:10;5.28;;;2.42;;
27857;SDS011;16852;51.446;6.528;2022-07-12T11:06:12;6.05;;;1.80;;
27857;SDS011;16852;51.446;6.528;2022-07-12T11:08:15;4.93;;;2.28;;
27857;SDS011;16852;51.446;6.528;2022-07-12T11:10:16;3.88;;;1.80;;
27857;SDS011;16852;51.446;6.528;2022-07-12T11:12:16;2.85;;;1.55;;
27857;SDS011;16852;51.446;6.528;2022-07-12T11:14:21;2.45;;;1.65;;
27857;SDS011;16852;51.446;6.528;2022-07-12T11:16:30;2.15;;;1.77;;
27857;SDS011;16852;51.446;6.528;2022-07-12T11:18:31;5.75;;;1.90;;
27857;SDS011;16852;51.446;6.528;2022-07-12T11:20:33;2.85;;;1.73;;
27857;SDS011;16852;51.446;6.528;2022-07-12T11:22:34;2.38;;;1.67;;
27857;SDS011;16852;51.446;6.528;2022-07-12T11:26:37;3.33;;;1.80;;
27857;SDS011;16852;51.446;6.528;2022-07-12T11:28:39;2.80;;;1.67;;
27857;SDS011;16852;51.446;6.528;2022-07-12T11:30:52;6.07;;;2.10;;
27857;SDS011;16852;51.446;6.528;2022-07-12T11:32:53;2.25;;;1.80;;
27857;SDS011;16852;51.446;6.528;2022-07-12T11:34:54;2.10;;;1.77;;
27857;SDS011;16852;51.446;6.528;2022-07-12T11:36:55;1.75;;;1.63;;
27857;SDS011;16852;51.446;6.528;2022-07-12T11:38:57;2.38;;;1.75;;
27857;SDS011;16852;51.446;6.528;2022-07-12T11:40:58;1.67;;;1.40;;
27857;SDS011;16852;51.446;6.528;2022-07-12T11:43:00;2.00;;;1.80;;
27857;SDS011;16852;51.446;6.528;2022-07-12T11:47:02;2.50;;;1.73;;
27857;SDS011;16852;51.446;6.528;2022-07-12T11:49:03;2.38;;;1.30;;
27857;SDS011;16852;51.446;6.528;2022-07-12T11:51:05;4.07;;;1.83;;
27857;SDS011;16852;51.446;6.528;2022-07-12T11:53:20;2.55;;;2.05;;
27857;SDS011;16852;51.446;6.528;2022-07-12T11:55:22;2.27;;;1.70;;
27857;SDS011;16852;51.446;6.528;2022-07-12T11:57:23;2.38;;;1.60;;
27857;SDS011;16852;51.446;6.528;2022-07-12T11:59:23;1.88;;;1.67;;
27857;SDS011;16852;51.446;6.528;2022-07-12T12:01:24;2.33;;;1.42;;
27857;SDS011;16852;51.446;6.528;2022-07-12T12:03:26;1.92;;;1.73;;
27857;SDS011;16852;51.446;6.528;2022-07-12T12:05:27;2.58;;;1.88;;
27857;SDS011;16852;51.446;6.528;2022-07-12T12:07:28;2.88;;;1.90;;
27857;SDS011;16852;51.446;6.528;2022-07-12T12:09:29;2.25;;;1.88;;
27857;SDS011;16852;51.446;6.528;2022-07-12T12:11:29;2.63;;;1.88;;
27857;SDS011;16852;51.446;6.528;2022-07-12T12:13:30;2.10;;;1.90;;
27857;SDS011;16852;51.446;6.528;2022-07-12T12:15:32;2.72;;;1.80;;
27857;SDS011;16852;51.446;6.528;2022-07-12T12:17:34;1.88;;;1.58;;
27857;SDS011;16852;51.446;6.528;2022-07-12T12:19:41;1.92;;;1.73;;
27857;SDS011;16852;51.446;6.528;2022-07-12T12:21:42;1.90;;;1.67;;
27857;SDS011;16852;51.446;6.528;2022-07-12T12:23:42;4.20;;;1.80;;
27857;SDS011;16852;51.446;6.528;2022-07-12T12:25:43;2.75;;;2.00;;
27857;SDS011;16852;51.446;6.528;2022-07-12T12:27:51;2.20;;;1.83;;
27857;SDS011;16852;51.446;6.528;2022-07-12T12:29:58;2.75;;;1.88;;
27857;SDS011;16852;51.446;6.528;2022-07-12T12:32:05;1.60;;;1.50;;
27857;SDS011;16852;51.446;6.528;2022-07-12T12:34:09;2.60;;;1.60;;
27857;SDS011;16852;51.446;6.528;2022-07-12T12:36:15;2.47;;;1.77;;
27857;SDS011;16852;51.446;6.528;2022-07-12T12:38:17;2.10;;;1.27;;